createdAt,value
2022-08-26T00:04:43.102Z,100557.60
2022-08-26T00:09:47.359Z,100556.60
2022-08-26T00:14:50.536Z,100550.60
2022-08-26T00:19:53.911Z,100550.60
2022-08-26T00:24:56.934Z,100554.00
2022-08-26T00:30:08.787Z,100549.60
2022-08-26T00:35:13.631Z,100543.80
2022-08-26T00:40:24.472Z,100536.80
2022-08-26T00:45:33.560Z,100535.00
2022-08-26T00:50:45.683Z,100530.60
2022-08-26T00:56:22.596Z,100529.80
2022-08-26T01:01:28.285Z,100529.00
2022-08-26T01:06:33.785Z,100533.60
2022-08-26T01:11:36.987Z,100532.80
2022-08-26T01:16:40.566Z,100534.20
2022-08-26T01:21:54.172Z,100536.40
2022-08-26T01:27:05.461Z,100528.80
2022-08-26T01:32:12.061Z,100529.60
2022-08-26T01:37:23.912Z,100529.20
2022-08-26T01:42:28.537Z,100533.20
2022-08-26T01:47:35.185Z,100537.20
2022-08-26T01:52:42.704Z,100536.80
2022-08-26T01:57:51.350Z,100538.40
2022-08-26T02:03:17.423Z,100533.60
2022-08-26T02:08:46.003Z,100530.60
2022-08-26T02:13:58.203Z,100536.00
2022-08-26T02:19:04.912Z,100531.40
2022-08-26T02:24:22.967Z,100529.20
2022-08-26T02:29:41.464Z,100531.80
2022-08-26T02:34:46.330Z,100527.80
2022-08-26T02:39:49.546Z,100524.20
2022-08-26T02:44:52.798Z,100526.00
2022-08-26T02:49:55.816Z,100530.00
2022-08-26T02:54:58.789Z,100528.40
2022-08-26T03:00:03.100Z,100528.60
2022-08-26T03:05:07.595Z,100528.00
2022-08-26T03:10:12.717Z,100525.00
2022-08-26T03:15:18.845Z,100520.40
2022-08-26T03:20:22.136Z,100517.20
2022-08-26T03:25:25.928Z,100517.80
2022-08-26T03:30:45.285Z,100518.40
2022-08-26T03:35:50.525Z,100515.20
2022-08-26T03:40:53.927Z,100514.00
2022-08-26T03:45:56.920Z,100505.00
2022-08-26T03:51:02.193Z,100508.20
2022-08-26T03:56:06.739Z,100506.00
2022-08-26T04:01:12.422Z,100508.40
2022-08-26T04:06:16.165Z,100506.40
2022-08-26T04:11:22.979Z,100509.40
2022-08-26T04:16:29.171Z,100510.60
2022-08-26T04:21:32.151Z,100513.20
2022-08-26T04:26:39.447Z,100519.80
2022-08-26T04:31:50.447Z,100530.00
2022-08-26T04:36:58.727Z,100528.40
2022-08-26T04:42:02.092Z,100531.00
2022-08-26T04:47:05.674Z,100523.80
2022-08-26T04:52:08.692Z,100526.60
2022-08-26T04:57:11.958Z,100527.20
2022-08-26T05:02:15.076Z,100535.20
2022-08-26T05:07:18.313Z,100535.20
2022-08-26T05:12:21.262Z,100539.20
2022-08-26T05:17:24.664Z,100539.20
2022-08-26T05:22:27.638Z,100543.20
2022-08-26T05:27:30.631Z,100545.40
2022-08-26T05:32:33.575Z,100546.00
2022-08-26T05:37:38.561Z,100552.80
2022-08-26T05:42:42.820Z,100550.20
2022-08-26T05:47:46.509Z,100553.80
2022-08-26T05:52:50.994Z,100551.60
2022-08-26T05:57:53.915Z,100552.40
2022-08-26T06:02:58.585Z,100557.00
2022-08-26T06:08:19.217Z,100553.40
2022-08-26T06:13:27.192Z,100542.60
2022-08-26T06:18:38.452Z,100549.40
2022-08-26T06:24:01.218Z,100551.20
2022-08-26T06:29:06.900Z,100552.80
2022-08-26T06:34:11.793Z,100547.40
2022-08-26T06:39:17.786Z,100548.40
2022-08-26T06:44:20.969Z,100548.60
2022-08-26T06:49:26.735Z,100557.00
2022-08-26T06:54:31.902Z,100558.40
2022-08-26T06:59:34.977Z,100555.60
2022-08-26T07:04:37.932Z,100553.20
2022-08-26T07:09:41.449Z,100550.60
2022-08-26T07:14:47.412Z,100556.00
2022-08-26T07:19:51.196Z,100557.00
2022-08-26T07:24:55.631Z,100559.60
2022-08-26T07:29:58.785Z,100554.00
2022-08-26T07:35:01.740Z,100542.60
2022-08-26T07:40:05.330Z,100548.80
2022-08-26T07:45:08.570Z,100552.20
2022-08-26T07:50:12.264Z,100554.20
2022-08-26T07:55:15.401Z,100556.00
2022-08-26T08:00:18.499Z,100557.20
2022-08-26T08:05:23.068Z,100563.60
2022-08-26T08:10:38.319Z,100564.00
2022-08-26T08:15:42.400Z,100564.00
2022-08-26T08:20:59.189Z,100558.80
2022-08-26T08:26:11.061Z,100552.20
2022-08-26T08:31:55.977Z,100545.80
2022-08-26T08:36:50.502Z,100539.40
2022-08-26T08:42:29.990Z,100538.40
2022-08-26T08:47:39.642Z,100540.00
2022-08-26T08:52:49.243Z,100535.60
2022-08-26T08:58:13.489Z,100531.00
2022-08-26T09:03:27.924Z,100526.80
2022-08-26T09:08:36.406Z,100529.40
2022-08-26T09:13:45.313Z,100528.40
2022-08-26T09:19:02.302Z,100528.20
2022-08-26T09:24:08.259Z,100528.60
2022-08-26T09:29:40.836Z,100527.00
2022-08-26T09:35:31.131Z,100524.40
2022-08-26T09:40:36.695Z,100524.60
2022-08-26T09:45:44.555Z,100517.80
2022-08-26T09:50:59.411Z,100509.60
2022-08-26T09:56:32.731Z,100511.40
2022-08-26T10:01:44.893Z,100506.40
2022-08-26T10:07:08.217Z,100509.00
2022-08-26T10:12:17.674Z,100510.40
2022-08-26T10:17:55.584Z,100510.20
2022-08-26T10:23:20.468Z,100507.00
2022-08-26T10:28:49.943Z,100496.80
2022-08-26T10:33:58.685Z,100507.60
2022-08-26T10:39:11.241Z,100505.00
2022-08-26T10:44:18.622Z,100501.80
2022-08-26T10:49:21.635Z,100499.60
2022-08-26T10:54:34.480Z,100500.40
2022-08-26T11:00:00.389Z,100502.00
2022-08-26T11:05:19.811Z,100494.40
2022-08-26T11:10:22.986Z,100493.20
2022-08-26T11:15:28.189Z,100487.20
2022-08-26T11:20:44.953Z,100483.00
2022-08-26T11:26:11.014Z,100486.80
2022-08-26T11:31:26.702Z,100473.80
2022-08-26T11:36:38.753Z,100471.80
2022-08-26T11:41:48.394Z,100467.60
2022-08-26T11:47:00.756Z,100464.80
2022-08-26T11:52:22.549Z,100460.20
2022-08-26T11:57:27.241Z,100454.80
2022-08-26T12:02:30.292Z,100446.00
2022-08-26T12:07:33.425Z,100438.60
2022-08-26T12:12:42.566Z,100435.00
2022-08-26T12:17:52.923Z,100432.80
2022-08-26T12:23:00.220Z,100424.00
2022-08-26T12:28:06.275Z,100413.60
2022-08-26T12:33:22.089Z,100411.80
2022-08-26T12:38:28.203Z,100410.80
2022-08-26T12:43:44.867Z,100405.20
2022-08-26T12:48:50.191Z,100401.40
2022-08-26T12:53:54.500Z,100403.60
2022-08-26T12:59:24.052Z,100395.20
2022-08-26T13:04:41.268Z,100392.60
2022-08-26T13:09:44.499Z,100389.60
2022-08-26T13:14:47.594Z,100380.80
2022-08-26T13:19:50.625Z,100371.60
2022-08-26T13:24:56.828Z,100376.60
2022-08-26T13:30:00.486Z,100371.00
2022-08-26T13:35:05.977Z,100368.80
2022-08-26T13:40:10.282Z,100367.20
2022-08-26T13:45:13.363Z,100356.00
2022-08-26T13:50:16.574Z,100354.00
2022-08-26T13:55:19.584Z,100351.60
2022-08-26T14:00:23.194Z,100345.80
2022-08-26T14:05:28.189Z,100349.20
2022-08-26T14:10:31.302Z,100345.80
2022-08-26T14:15:36.276Z,100336.00
2022-08-26T14:20:39.980Z,100338.20
2022-08-26T14:25:43.139Z,100336.60
2022-08-26T14:30:54.368Z,100325.60
2022-08-26T14:36:17.292Z,100321.60
2022-08-26T14:41:21.724Z,100316.20
2022-08-26T14:46:29.036Z,100308.00
2022-08-26T14:51:33.224Z,100296.80
2022-08-26T14:56:41.535Z,100299.20
2022-08-26T15:01:45.758Z,100295.00
2022-08-26T15:06:49.905Z,100294.40
2022-08-26T15:11:53.417Z,100285.80
2022-08-26T15:16:58.073Z,100283.60
2022-08-26T15:22:01.136Z,100284.00
2022-08-26T15:27:04.307Z,100277.20
2022-08-26T15:32:07.631Z,100270.80
2022-08-26T15:37:11.016Z,100269.60
2022-08-26T15:42:14.156Z,100271.60
2022-08-26T15:47:17.177Z,100263.80
2022-08-26T15:52:21.356Z,100260.60
2022-08-26T15:57:24.587Z,100254.40
2022-08-26T16:02:32.332Z,100255.00
2022-08-26T16:07:35.745Z,100250.60
2022-08-26T16:12:38.853Z,100248.20
2022-08-26T16:17:41.947Z,100241.80
2022-08-26T16:22:45.075Z,100242.80
2022-08-26T16:27:48.374Z,100242.00
2022-08-26T16:32:51.330Z,100239.80
2022-08-26T16:37:56.434Z,100239.00
2022-08-26T16:42:59.562Z,100237.80
2022-08-26T16:48:02.986Z,100232.20
2022-08-26T16:53:06.280Z,100233.60
2022-08-26T16:58:09.559Z,100235.00
2022-08-26T17:03:12.831Z,100235.60
2022-08-26T17:08:24.395Z,100239.20
2022-08-26T17:13:35.767Z,100240.40
2022-08-26T17:18:39.376Z,100246.60
2022-08-26T17:23:43.766Z,100242.60
2022-08-26T17:28:47.189Z,100246.00
2022-08-26T17:33:53.682Z,100243.60
2022-08-26T17:38:58.653Z,100249.40
2022-08-26T17:44:01.641Z,100253.00
2022-08-26T17:49:05.732Z,100253.20
2022-08-26T17:54:09.382Z,100261.60
2022-08-26T17:59:12.467Z,100264.40
2022-08-26T18:04:16.169Z,100268.60
2022-08-26T18:09:19.362Z,100271.20
2022-08-26T18:14:22.376Z,100271.60
2022-08-26T18:19:26.579Z,100272.00
2022-08-26T18:24:32.246Z,100279.40
2022-08-26T18:29:35.464Z,100286.40
2022-08-26T18:34:41.634Z,100282.60
2022-08-26T18:39:44.732Z,100290.00
2022-08-26T18:44:51.399Z,100292.00
2022-08-26T18:49:54.980Z,100299.20
2022-08-26T18:54:58.203Z,100304.80
2022-08-26T19:00:02.594Z,100308.20
2022-08-26T19:05:07.051Z,100309.40
2022-08-26T19:10:11.994Z,100310.60
2022-08-26T19:15:14.955Z,100309.60
2022-08-26T19:20:18.048Z,100308.80
2022-08-26T19:25:21.041Z,100305.80
2022-08-26T19:30:24.339Z,100314.40
2022-08-26T19:35:32.632Z,100308.80
2022-08-26T19:40:38.597Z,100313.80
2022-08-26T19:45:41.678Z,100312.60
2022-08-26T19:50:46.442Z,100315.00
2022-08-26T19:55:49.355Z,100317.80
2022-08-26T20:00:52.359Z,100331.80
2022-08-26T20:05:55.296Z,100335.80
2022-08-26T20:11:04.956Z,100334.40
2022-08-26T20:16:10.420Z,100332.00
2022-08-26T20:21:26.247Z,100333.40
2022-08-26T20:26:33.325Z,100324.00
2022-08-26T20:31:37.030Z,100326.60
2022-08-26T20:36:41.924Z,100335.40
2022-08-26T20:41:45.637Z,100338.40
2022-08-26T20:46:50.029Z,100330.80
2022-08-26T20:51:54.136Z,100330.80
2022-08-26T20:56:58.724Z,100329.60
2022-08-26T21:02:01.904Z,100322.00
2022-08-26T21:07:05.024Z,100324.80
2022-08-26T21:12:09.255Z,100317.60
2022-08-26T21:17:12.807Z,100320.20
2022-08-26T21:22:15.887Z,100311.20
2022-08-26T21:27:26.143Z,100309.40
2022-08-26T21:32:29.701Z,100305.40
2022-08-26T21:37:32.921Z,100302.00
2022-08-26T21:42:36.249Z,100307.80
2022-08-26T21:47:39.767Z,100308.80
2022-08-26T21:52:42.815Z,100306.80
2022-08-26T21:57:45.842Z,100307.60
2022-08-26T22:02:50.355Z,100309.60
2022-08-26T22:07:53.841Z,100308.80
2022-08-26T22:12:56.879Z,100301.20
2022-08-26T22:17:59.872Z,100309.80
2022-08-26T22:23:03.249Z,100303.40
2022-08-26T22:28:07.693Z,100307.80
2022-08-26T22:33:11.469Z,100301.60
2022-08-26T22:38:15.078Z,100310.00
2022-08-26T22:43:19.372Z,100310.40
2022-08-26T22:48:25.857Z,100310.60
2022-08-26T22:53:29.107Z,100306.40
2022-08-26T22:58:36.301Z,100305.40
2022-08-26T23:03:39.562Z,100302.80
2022-08-26T23:08:45.386Z,100295.80
2022-08-26T23:13:48.468Z,100289.60
2022-08-26T23:18:51.610Z,100285.00
2022-08-26T23:23:54.644Z,100279.60
2022-08-26T23:28:58.125Z,100286.80
2022-08-26T23:34:19.864Z,100279.00
2022-08-26T23:39:25.590Z,100272.60
2022-08-26T23:44:31.151Z,100272.00
2022-08-26T23:49:35.147Z,100268.20
2022-08-26T23:54:39.996Z,100266.60
2022-08-26T23:59:43.451Z,100256.20
